createdAt,value
2023-03-31T00:00:52.779Z,51.00
2023-03-31T00:03:24.214Z,51.00
2023-03-31T00:05:58.124Z,50.90
2023-03-31T00:08:30.957Z,50.90
2023-03-31T00:11:00.139Z,50.90
2023-03-31T00:13:27.972Z,51.00
2023-03-31T00:15:58.701Z,51.00
2023-03-31T00:18:26.861Z,51.00
2023-03-31T00:20:55.001Z,51.00
2023-03-31T00:23:28.070Z,51.10
2023-03-31T00:25:57.510Z,50.90
2023-03-31T00:28:25.393Z,50.90
2023-03-31T00:30:53.514Z,50.90
2023-03-31T00:33:21.792Z,51.10
2023-03-31T00:35:52.994Z,50.90
2023-03-31T00:38:21.987Z,51.00
2023-03-31T00:40:52.592Z,50.90
2023-03-31T00:43:30.060Z,50.90
2023-03-31T00:46:02.552Z,51.00
2023-03-31T00:48:30.694Z,51.00
2023-03-31T00:50:59.288Z,51.00
2023-03-31T00:53:28.918Z,51.10
2023-03-31T00:55:58.605Z,51.10
2023-03-31T00:58:29.332Z,51.10
2023-03-31T01:00:58.596Z,51.20
2023-03-31T01:03:26.522Z,51.10
2023-03-31T01:05:55.751Z,51.10
2023-03-31T01:08:25.801Z,51.00
2023-03-31T01:10:55.575Z,51.00
2023-03-31T01:13:23.765Z,51.10
2023-03-31T01:15:53.759Z,51.10
2023-03-31T01:18:22.190Z,51.00
2023-03-31T01:21:07.036Z,51.00
2023-03-31T01:24:06.963Z,51.00
2023-03-31T01:26:52.331Z,51.10
2023-03-31T01:29:40.024Z,51.20
2023-03-31T01:32:43.667Z,51.20
2023-03-31T01:35:41.405Z,51.20
2023-03-31T01:38:31.365Z,51.10
2023-03-31T01:41:18.652Z,51.30
2023-03-31T01:43:48.896Z,51.20
2023-03-31T01:46:20.254Z,51.20
2023-03-31T01:48:50.116Z,51.20
2023-03-31T01:51:19.083Z,51.20
2023-03-31T01:53:50.187Z,51.30
2023-03-31T01:56:21.250Z,51.40
2023-03-31T01:58:51.643Z,51.20
2023-03-31T02:01:21.545Z,51.30
2023-03-31T02:03:50.838Z,51.40
2023-03-31T02:06:21.812Z,51.50
2023-03-31T02:08:50.636Z,51.40
2023-03-31T02:11:19.700Z,51.40
2023-03-31T02:13:48.255Z,51.40
2023-03-31T02:16:19.093Z,51.50
2023-03-31T02:18:47.267Z,51.50
2023-03-31T02:21:16.508Z,51.50
2023-03-31T02:23:44.302Z,51.50
2023-03-31T02:26:13.779Z,51.50
2023-03-31T02:28:42.918Z,51.50
2023-03-31T02:31:19.966Z,51.30
2023-03-31T02:33:48.325Z,51.60
2023-03-31T02:36:16.200Z,51.50
2023-03-31T02:38:45.755Z,51.50
2023-03-31T02:41:13.538Z,51.50
2023-03-31T02:43:43.028Z,51.40
2023-03-31T02:46:11.960Z,51.50
2023-03-31T02:48:40.744Z,51.50
2023-03-31T02:51:46.915Z,51.60
2023-03-31T02:54:25.889Z,51.40
2023-03-31T02:57:03.750Z,51.60
2023-03-31T02:59:39.961Z,51.70
2023-03-31T03:02:15.443Z,51.50
2023-03-31T03:05:08.225Z,51.50
2023-03-31T03:07:37.937Z,51.60
2023-03-31T03:10:07.534Z,51.70
2023-03-31T03:12:37.753Z,52.00
2023-03-31T03:15:08.150Z,51.70
2023-03-31T03:17:36.975Z,51.60
2023-03-31T03:20:08.050Z,51.60
2023-03-31T03:22:36.328Z,51.60
2023-03-31T03:25:04.343Z,51.70
2023-03-31T03:27:32.799Z,51.60
2023-03-31T03:30:02.791Z,51.70
2023-03-31T03:32:33.667Z,51.60
2023-03-31T03:35:01.791Z,51.60
2023-03-31T03:37:30.185Z,51.60
2023-03-31T03:39:58.110Z,51.60
2023-03-31T03:42:26.343Z,51.60
2023-03-31T03:44:54.089Z,51.60
2023-03-31T03:47:21.880Z,51.60
2023-03-31T03:49:51.444Z,51.60
2023-03-31T03:52:19.558Z,51.70
2023-03-31T03:54:47.527Z,51.60
2023-03-31T03:57:15.632Z,51.60
2023-03-31T03:59:43.653Z,51.70
2023-03-31T04:02:11.670Z,51.80
2023-03-31T04:04:40.050Z,51.70
2023-03-31T04:07:09.549Z,51.70
2023-03-31T04:09:37.502Z,51.80
2023-03-31T04:12:05.889Z,51.80
2023-03-31T04:14:33.934Z,51.80
2023-03-31T04:17:03.321Z,51.80
2023-03-31T04:19:31.465Z,51.80
2023-03-31T04:22:03.486Z,51.90
2023-03-31T04:24:33.262Z,51.90
2023-03-31T04:27:03.377Z,51.80
2023-03-31T04:29:33.855Z,51.80
2023-03-31T04:32:02.359Z,51.90
2023-03-31T04:34:36.011Z,51.90
2023-03-31T04:37:04.693Z,51.80
2023-03-31T04:39:33.950Z,51.80
2023-03-31T04:42:02.624Z,51.80
2023-03-31T04:44:30.774Z,51.80
2023-03-31T04:46:59.016Z,52.50
2023-03-31T04:49:27.109Z,51.90
2023-03-31T04:51:55.092Z,52.00
2023-03-31T04:54:23.024Z,52.00
2023-03-31T04:56:52.910Z,51.90
2023-03-31T04:59:20.885Z,52.00
2023-03-31T05:01:48.996Z,52.00
2023-03-31T05:04:17.004Z,52.00
2023-03-31T05:06:44.960Z,51.90
2023-03-31T05:09:12.895Z,52.10
2023-03-31T05:11:41.228Z,51.80
2023-03-31T05:14:10.591Z,51.90
2023-03-31T05:16:38.795Z,51.90
2023-03-31T05:19:06.728Z,52.00
2023-03-31T05:21:34.761Z,52.00
2023-03-31T05:24:03.121Z,52.10
2023-03-31T05:26:31.528Z,51.90
2023-03-31T05:28:59.694Z,52.10
2023-03-31T05:31:29.295Z,52.00
2023-03-31T05:33:57.318Z,52.10
2023-03-31T05:36:27.322Z,52.10
2023-03-31T05:38:55.552Z,52.10
2023-03-31T05:41:23.575Z,52.10
2023-03-31T05:43:51.512Z,52.00
2023-03-31T05:46:19.633Z,52.00
2023-03-31T05:48:49.059Z,52.10
2023-03-31T05:51:17.092Z,52.10
2023-03-31T05:53:45.171Z,52.10
2023-03-31T05:56:13.861Z,52.30
2023-03-31T05:58:42.046Z,52.40
2023-03-31T06:01:11.519Z,52.30
2023-03-31T06:03:41.252Z,52.40
2023-03-31T06:06:13.292Z,52.40
2023-03-31T06:08:41.367Z,52.30
2023-03-31T06:11:09.781Z,52.40
2023-03-31T06:13:38.296Z,52.40
2023-03-31T06:16:06.633Z,52.50
2023-03-31T06:18:35.375Z,52.40
2023-03-31T06:21:03.197Z,52.60
2023-03-31T06:23:32.503Z,52.60
2023-03-31T06:26:02.073Z,52.50
2023-03-31T06:28:30.229Z,52.60
2023-03-31T06:31:02.389Z,52.60
2023-03-31T06:33:30.880Z,52.70
2023-03-31T06:35:59.667Z,52.80
2023-03-31T06:38:27.595Z,52.60
2023-03-31T06:40:57.039Z,52.60
2023-03-31T06:43:25.003Z,52.80
2023-03-31T06:45:54.114Z,52.80
2023-03-31T06:48:22.125Z,52.80
2023-03-31T06:50:50.241Z,52.80
2023-03-31T06:53:18.163Z,52.70
2023-03-31T06:55:45.990Z,52.60
2023-03-31T06:58:16.200Z,52.70
2023-03-31T07:00:46.138Z,52.70
2023-03-31T07:03:14.312Z,52.80
2023-03-31T07:05:42.922Z,52.60
2023-03-31T07:08:11.306Z,52.80
2023-03-31T07:10:39.166Z,52.80
2023-03-31T07:13:07.101Z,52.70
2023-03-31T07:15:36.893Z,52.80
2023-03-31T07:18:04.900Z,52.90
2023-03-31T07:20:33.822Z,52.70
2023-03-31T07:23:04.961Z,52.90
2023-03-31T07:25:32.894Z,52.80
2023-03-31T07:28:00.759Z,52.70
2023-03-31T07:30:28.502Z,54.50
2023-03-31T07:32:57.576Z,58.50
2023-03-31T07:35:25.554Z,60.90
2023-03-31T07:37:54.398Z,66.80
2023-03-31T07:40:23.755Z,68.60
2023-03-31T07:42:52.224Z,72.20
2023-03-31T07:45:20.272Z,79.10
2023-03-31T07:47:48.095Z,85.60
2023-03-31T07:50:17.691Z,91.50
2023-03-31T07:52:47.105Z,96.50
2023-03-31T07:55:15.499Z,99.70
2023-03-31T07:57:43.615Z,98.10
2023-03-31T08:00:12.699Z,95.90
2023-03-31T08:02:41.567Z,93.60
2023-03-31T08:05:11.334Z,91.30
2023-03-31T08:07:42.159Z,89.50
2023-03-31T08:10:11.496Z,86.50
2023-03-31T08:12:39.404Z,84.30
2023-03-31T08:15:08.763Z,82.50
2023-03-31T08:17:36.840Z,80.60
2023-03-31T08:20:08.150Z,79.40
2023-03-31T08:22:36.909Z,78.30
2023-03-31T08:25:08.095Z,77.30
2023-03-31T08:27:36.021Z,76.20
2023-03-31T08:30:04.669Z,75.30
2023-03-31T08:32:33.051Z,74.70
2023-03-31T08:35:01.046Z,74.00
2023-03-31T08:37:28.794Z,73.30
2023-03-31T08:39:56.539Z,72.90
2023-03-31T08:42:30.623Z,72.40
2023-03-31T08:45:00.274Z,71.90
2023-03-31T08:47:28.399Z,71.70
2023-03-31T08:49:58.412Z,71.20
2023-03-31T08:52:28.068Z,70.80
2023-03-31T08:54:57.096Z,70.80
2023-03-31T08:57:27.084Z,70.60
2023-03-31T08:59:58.316Z,70.00
2023-03-31T09:02:30.939Z,73.80
2023-03-31T09:05:19.052Z,73.40
2023-03-31T09:07:51.371Z,72.30
2023-03-31T09:10:28.975Z,71.40
2023-03-31T09:13:00.594Z,71.30
2023-03-31T09:15:29.772Z,70.90
2023-03-31T09:17:58.532Z,70.00
2023-03-31T09:20:29.178Z,69.20
2023-03-31T09:22:58.886Z,68.10
2023-03-31T09:25:27.364Z,67.30
2023-03-31T09:27:57.077Z,66.60
2023-03-31T09:30:27.436Z,66.10
2023-03-31T09:32:59.847Z,65.60
2023-03-31T09:35:28.648Z,65.10
2023-03-31T09:37:57.126Z,64.80
2023-03-31T09:40:25.805Z,64.30
2023-03-31T09:42:58.307Z,64.60
2023-03-31T09:45:27.390Z,63.30
2023-03-31T09:47:56.259Z,63.50
2023-03-31T09:50:25.334Z,63.10
2023-03-31T09:52:54.522Z,62.90
2023-03-31T09:55:38.421Z,62.60
2023-03-31T09:58:08.466Z,62.40
2023-03-31T10:00:37.886Z,62.20
2023-03-31T10:03:07.605Z,61.30
2023-03-31T10:05:37.374Z,60.60
2023-03-31T10:08:18.618Z,60.80
2023-03-31T10:10:47.022Z,61.00
2023-03-31T10:13:16.851Z,61.40
2023-03-31T10:15:46.239Z,61.80
2023-03-31T10:18:15.492Z,62.30
2023-03-31T10:20:45.961Z,62.50
2023-03-31T10:23:18.004Z,62.70
2023-03-31T10:25:46.323Z,62.80
2023-03-31T10:28:16.427Z,62.90
2023-03-31T10:30:48.472Z,63.20
2023-03-31T10:33:22.539Z,63.10
2023-03-31T10:35:51.540Z,63.30
2023-03-31T10:38:24.173Z,63.50
2023-03-31T10:40:52.723Z,63.40
2023-03-31T10:43:21.113Z,63.60
2023-03-31T10:45:50.693Z,64.00
2023-03-31T10:48:19.821Z,64.00
2023-03-31T10:50:48.787Z,63.90
2023-03-31T10:53:16.954Z,64.30
2023-03-31T10:55:51.596Z,64.20
2023-03-31T10:58:26.313Z,64.50
2023-03-31T11:01:03.265Z,64.70
2023-03-31T11:03:48.717Z,64.60
2023-03-31T11:06:20.454Z,64.60
2023-03-31T11:08:53.205Z,64.60
2023-03-31T11:11:32.014Z,64.50
2023-03-31T11:14:02.222Z,64.70
2023-03-31T11:16:35.358Z,64.30
2023-03-31T11:19:09.668Z,64.00
2023-03-31T11:21:43.937Z,63.90
2023-03-31T11:24:18.024Z,64.10
2023-03-31T11:26:49.213Z,64.10
2023-03-31T11:29:24.274Z,63.80
2023-03-31T11:31:55.779Z,63.90
2023-03-31T11:34:35.777Z,64.20
2023-03-31T11:37:36.840Z,64.10
2023-03-31T11:40:21.960Z,64.00
2023-03-31T11:42:51.347Z,64.00
2023-03-31T11:45:20.769Z,64.10
2023-03-31T11:47:51.625Z,64.10
2023-03-31T11:50:20.613Z,64.10
2023-03-31T11:52:52.206Z,64.20
2023-03-31T11:55:23.146Z,64.30
2023-03-31T11:57:54.569Z,64.30
2023-03-31T12:00:23.872Z,64.30
2023-03-31T12:02:55.968Z,64.50
2023-03-31T12:05:24.419Z,64.20
2023-03-31T12:07:55.489Z,63.90
2023-03-31T12:10:25.025Z,62.70
2023-03-31T12:12:54.489Z,62.10
2023-03-31T12:15:26.284Z,62.80
2023-03-31T12:17:58.716Z,60.30
2023-03-31T12:20:32.528Z,65.30
2023-03-31T12:23:01.416Z,65.30
2023-03-31T12:25:34.301Z,63.30
2023-03-31T12:28:02.525Z,65.80
2023-03-31T12:30:32.100Z,65.90
2023-03-31T12:33:04.089Z,68.80
2023-03-31T12:35:36.419Z,67.20
2023-03-31T12:38:11.068Z,65.50
2023-03-31T12:40:43.521Z,63.90
2023-03-31T12:43:22.539Z,62.70
2023-03-31T12:45:51.959Z,62.30
2023-03-31T12:48:36.171Z,61.90
2023-03-31T12:51:19.064Z,61.70
2023-03-31T12:53:54.531Z,61.50
2023-03-31T12:56:22.813Z,61.60
2023-03-31T12:58:51.049Z,61.30
2023-03-31T13:01:20.362Z,61.20
2023-03-31T13:03:54.859Z,60.90
2023-03-31T13:06:52.413Z,60.90
2023-03-31T13:09:48.519Z,60.90
2023-03-31T13:12:20.782Z,60.90
2023-03-31T13:14:51.693Z,61.10
2023-03-31T13:17:28.523Z,60.90
2023-03-31T13:19:58.769Z,60.70
2023-03-31T13:22:34.528Z,60.70
2023-03-31T13:25:50.510Z,60.70
2023-03-31T13:28:26.221Z,60.80
2023-03-31T13:30:55.894Z,60.90
2023-03-31T13:33:35.688Z,61.10
2023-03-31T13:36:18.904Z,61.10
2023-03-31T13:38:52.570Z,60.60
2023-03-31T13:41:30.828Z,60.90
2023-03-31T13:44:16.868Z,59.80
2023-03-31T13:46:52.256Z,59.30
2023-03-31T13:49:38.526Z,58.60
2023-03-31T13:52:11.489Z,58.70
2023-03-31T13:54:54.777Z,59.00
2023-03-31T13:57:36.072Z,59.30
2023-03-31T14:00:19.878Z,59.60
2023-03-31T14:02:54.124Z,59.80
2023-03-31T14:05:25.373Z,60.50
2023-03-31T14:07:56.954Z,59.90
2023-03-31T14:10:29.925Z,59.90
2023-03-31T14:13:08.737Z,60.10
2023-03-31T14:15:37.487Z,61.20
2023-03-31T14:18:06.978Z,60.60
2023-03-31T14:20:39.376Z,59.10
2023-03-31T14:23:17.688Z,59.20
2023-03-31T14:25:50.159Z,57.70
2023-03-31T14:28:27.889Z,58.40
2023-03-31T14:31:02.780Z,57.70
2023-03-31T14:33:35.232Z,57.40
2023-03-31T14:36:05.612Z,56.30
2023-03-31T14:38:34.646Z,54.90
2023-03-31T14:41:03.746Z,56.20
2023-03-31T14:43:33.967Z,54.10
2023-03-31T14:46:02.037Z,54.50
2023-03-31T14:48:30.188Z,55.70
2023-03-31T14:50:58.994Z,55.20
2023-03-31T14:53:27.421Z,55.50
2023-03-31T14:56:01.044Z,56.40
2023-03-31T14:58:30.399Z,56.70
2023-03-31T15:00:58.378Z,57.20
2023-03-31T15:03:26.283Z,57.70
2023-03-31T15:05:57.769Z,58.30
2023-03-31T15:08:25.647Z,59.00
2023-03-31T15:11:02.284Z,58.80
2023-03-31T15:13:46.934Z,59.30
2023-03-31T15:16:22.487Z,59.60
2023-03-31T15:18:50.654Z,60.10
2023-03-31T15:21:21.879Z,60.20
2023-03-31T15:23:53.074Z,60.10
2023-03-31T15:26:27.933Z,60.60
2023-03-31T15:29:06.126Z,60.80
2023-03-31T15:31:34.109Z,61.00
2023-03-31T15:34:02.594Z,61.20
2023-03-31T15:36:30.591Z,61.40
2023-03-31T15:38:59.528Z,61.70
2023-03-31T15:41:30.766Z,61.40
2023-03-31T15:44:08.949Z,61.50
2023-03-31T15:46:50.502Z,61.40
2023-03-31T15:49:20.583Z,61.40
2023-03-31T15:51:48.577Z,61.20
2023-03-31T15:54:31.612Z,61.00
2023-03-31T15:57:01.141Z,61.20
2023-03-31T15:59:41.697Z,61.20
2023-03-31T16:02:16.854Z,61.30
2023-03-31T16:04:44.574Z,61.30
2023-03-31T16:07:17.088Z,60.90
2023-03-31T16:09:46.242Z,60.70
2023-03-31T16:12:19.295Z,60.50
2023-03-31T16:14:51.283Z,60.20
2023-03-31T16:17:26.087Z,60.30
2023-03-31T16:19:55.976Z,60.30
2023-03-31T16:22:25.471Z,60.60
2023-03-31T16:24:53.446Z,60.40
2023-03-31T16:27:21.253Z,60.80
2023-03-31T16:29:50.548Z,60.90
2023-03-31T16:32:20.657Z,60.90
2023-03-31T16:34:56.038Z,60.70
2023-03-31T16:37:23.844Z,60.70
2023-03-31T16:39:51.692Z,60.80
2023-03-31T16:42:19.619Z,60.80
2023-03-31T16:44:59.883Z,60.80
2023-03-31T16:47:37.129Z,61.00
2023-03-31T16:50:07.717Z,61.00
2023-03-31T16:52:35.840Z,61.00
2023-03-31T16:55:06.773Z,60.90
2023-03-31T16:57:35.110Z,60.90
2023-03-31T17:00:03.421Z,60.90
2023-03-31T17:02:31.430Z,61.10
2023-03-31T17:05:12.566Z,61.30
2023-03-31T17:07:41.375Z,61.00
2023-03-31T17:10:10.143Z,61.00
2023-03-31T17:12:38.257Z,61.00
2023-03-31T17:15:06.894Z,61.00
2023-03-31T17:17:34.784Z,61.00
2023-03-31T17:20:08.188Z,61.10
2023-03-31T17:22:36.396Z,60.90
2023-03-31T17:25:04.474Z,61.00
2023-03-31T17:27:32.299Z,61.00
2023-03-31T17:29:59.977Z,60.90
2023-03-31T17:32:28.418Z,60.90
2023-03-31T17:35:01.945Z,60.80
2023-03-31T17:37:34.009Z,60.90
2023-03-31T17:40:01.920Z,60.80
2023-03-31T17:42:30.307Z,60.80
2023-03-31T17:44:58.784Z,60.80
2023-03-31T17:47:27.711Z,60.80
2023-03-31T17:50:01.721Z,60.70
2023-03-31T17:52:35.053Z,60.80
2023-03-31T17:55:04.230Z,60.80
2023-03-31T17:57:36.679Z,60.80
2023-03-31T18:00:05.103Z,60.80
2023-03-31T18:02:33.147Z,60.60
2023-03-31T18:05:01.113Z,60.70
2023-03-31T18:07:29.053Z,60.60
2023-03-31T18:09:58.710Z,60.90
2023-03-31T18:12:28.998Z,60.90
2023-03-31T18:14:57.463Z,60.70
2023-03-31T18:17:25.431Z,60.70
2023-03-31T18:19:53.894Z,60.30
2023-03-31T18:22:21.994Z,60.10
2023-03-31T18:24:49.955Z,59.70
2023-03-31T18:27:19.588Z,59.20
2023-03-31T18:29:47.835Z,58.90
2023-03-31T18:32:16.524Z,59.10
2023-03-31T18:34:45.099Z,59.20
2023-03-31T18:37:13.405Z,59.40
2023-03-31T18:39:43.125Z,59.70
2023-03-31T18:42:10.929Z,59.80
2023-03-31T18:44:41.026Z,60.10
2023-03-31T18:47:09.082Z,60.10
2023-03-31T18:49:36.876Z,60.40
2023-03-31T18:52:05.509Z,60.70
2023-03-31T18:54:33.509Z,61.00
2023-03-31T18:57:02.412Z,61.00
2023-03-31T18:59:30.182Z,61.10
2023-03-31T19:01:59.682Z,61.40
2023-03-31T19:04:28.262Z,61.50
2023-03-31T19:06:56.837Z,61.70
2023-03-31T19:09:28.340Z,61.60
2023-03-31T19:11:57.289Z,61.80
2023-03-31T19:14:25.220Z,61.80
2023-03-31T19:16:53.294Z,62.00
2023-03-31T19:19:23.184Z,62.00
2023-03-31T19:21:52.449Z,62.10
2023-03-31T19:24:20.496Z,62.20
2023-03-31T19:26:49.018Z,62.10
2023-03-31T19:29:17.812Z,62.20
2023-03-31T19:31:47.588Z,62.20
2023-03-31T19:34:16.644Z,62.20
2023-03-31T19:36:46.191Z,62.30
2023-03-31T19:39:13.949Z,62.40
2023-03-31T19:41:42.186Z,62.10
2023-03-31T19:44:10.370Z,62.30
2023-03-31T19:46:38.121Z,62.30
2023-03-31T19:49:05.943Z,62.20
2023-03-31T19:51:33.970Z,62.30
2023-03-31T19:54:03.427Z,62.30
2023-03-31T19:56:32.292Z,62.30
2023-03-31T19:59:00.651Z,62.40
2023-03-31T20:01:28.869Z,62.40
2023-03-31T20:03:57.399Z,62.50
2023-03-31T20:06:26.426Z,62.40
2023-03-31T20:08:54.703Z,62.50
2023-03-31T20:11:24.301Z,62.50
2023-03-31T20:13:52.636Z,62.50
2023-03-31T20:16:21.339Z,62.60
2023-03-31T20:18:53.635Z,62.50
2023-03-31T20:21:22.158Z,62.60
2023-03-31T20:23:50.534Z,62.70
2023-03-31T20:26:19.667Z,62.60
2023-03-31T20:28:49.102Z,62.00
2023-03-31T20:31:18.005Z,62.50
2023-03-31T20:33:46.642Z,62.70
2023-03-31T20:36:15.771Z,63.50
2023-03-31T20:38:44.403Z,62.60
2023-03-31T20:41:12.957Z,62.60
2023-03-31T20:43:41.096Z,62.60
2023-03-31T20:46:10.563Z,62.80
2023-03-31T20:48:40.029Z,62.60
2023-03-31T20:51:08.346Z,62.60
2023-03-31T20:53:41.775Z,62.60
2023-03-31T20:56:09.794Z,62.60
2023-03-31T20:58:42.495Z,62.60
2023-03-31T21:01:13.529Z,62.70
2023-03-31T21:03:41.550Z,62.70
2023-03-31T21:06:11.114Z,62.80
2023-03-31T21:08:45.828Z,62.00
2023-03-31T21:11:13.899Z,62.70
2023-03-31T21:13:41.903Z,62.90
2023-03-31T21:16:10.244Z,62.70
2023-03-31T21:18:48.658Z,62.80
2023-03-31T21:21:20.203Z,62.70
2023-03-31T21:23:49.640Z,62.60
2023-03-31T21:26:21.861Z,62.70
2023-03-31T21:28:51.268Z,62.70
2023-03-31T21:31:19.863Z,62.70
2023-03-31T21:33:49.240Z,62.60
2023-03-31T21:36:18.813Z,62.70
2023-03-31T21:38:46.890Z,62.80
2023-03-31T21:41:15.587Z,62.80
2023-03-31T21:43:43.699Z,62.80
2023-03-31T21:46:14.056Z,62.60
2023-03-31T21:48:42.687Z,62.60
2023-03-31T21:51:11.925Z,62.40
2023-03-31T21:53:40.557Z,62.50
2023-03-31T21:56:08.559Z,62.20
2023-03-31T21:58:36.908Z,62.30
2023-03-31T22:01:05.677Z,62.20
2023-03-31T22:03:34.609Z,62.20
2023-03-31T22:06:03.278Z,62.20
2023-03-31T22:08:32.900Z,62.30
2023-03-31T22:11:01.592Z,62.40
2023-03-31T22:13:29.680Z,62.30
2023-03-31T22:15:59.257Z,62.40
2023-03-31T22:18:27.308Z,62.30
2023-03-31T22:20:55.449Z,62.40
2023-03-31T22:23:23.752Z,62.40
2023-03-31T22:25:53.421Z,62.30
2023-03-31T22:28:21.901Z,62.30
2023-03-31T22:30:49.917Z,62.30
2023-03-31T22:33:18.293Z,62.40
2023-03-31T22:35:46.251Z,62.40
2023-03-31T22:38:14.961Z,62.50
2023-03-31T22:40:42.934Z,62.50
2023-03-31T22:43:12.743Z,62.50
2023-03-31T22:45:40.760Z,62.40
2023-03-31T22:48:09.890Z,62.50
2023-03-31T22:50:37.981Z,62.50
2023-03-31T22:53:06.186Z,62.50
2023-03-31T22:55:34.874Z,62.40
2023-03-31T22:58:03.327Z,62.50
2023-03-31T23:00:35.839Z,62.60
2023-03-31T23:03:03.953Z,62.50
2023-03-31T23:05:32.118Z,62.50
2023-03-31T23:08:02.098Z,62.60
2023-03-31T23:10:32.191Z,62.60
2023-03-31T23:13:00.698Z,62.60
2023-03-31T23:15:28.811Z,62.60
2023-03-31T23:17:58.225Z,62.70
2023-03-31T23:20:26.592Z,62.60
2023-03-31T23:22:57.049Z,62.60
2023-03-31T23:25:25.031Z,62.80
2023-03-31T23:27:53.412Z,62.70
2023-03-31T23:30:22.019Z,62.70
2023-03-31T23:32:49.916Z,62.80
2023-03-31T23:35:19.506Z,62.60
2023-03-31T23:37:47.895Z,62.70
2023-03-31T23:40:16.100Z,62.80
2023-03-31T23:42:44.532Z,62.80
2023-03-31T23:45:13.087Z,62.60
2023-03-31T23:47:42.502Z,62.60
2023-03-31T23:50:11.353Z,62.80
2023-03-31T23:52:40.765Z,62.80
2023-03-31T23:55:09.204Z,62.80
2023-03-31T23:57:37.117Z,62.80
